Southpoint, Ohio
Current Conditions -  °F | °C
As of 6:39 PM on Wednesday 22 Oct 2014 (Local Time) from KHTS Reporting Station
Overcast Overcast  
Wind Chill: 50°   Ceiling: 2900
Heat Index: 50°   Visibility: 10mi
Dew Point: 43°   Wind: 5mph
Humidity: 77%   Direction: 330°NNW
Pressure: 30.23"   Gusts: NA
Location:  38.4563°N, 82.5446°W
Report Text: KHTS 222239Z 33004KT 10SM OVC029 10/06 A3023 RMK AO2 T01000061
Loading
Personal Weather Stations






























Interactive Weather Map
Tropical Storm Tracking
New forecast layout! Learn more

10-Day Weather Forecast

Advertisements
Track Severe Weather on mobile